createdAt,value
2019-05-01T00:02:33.130Z,100983.00
2019-05-01T00:05:17.027Z,100976.00
2019-05-01T00:07:49.571Z,100959.00
2019-05-01T00:10:26.764Z,100962.00
2019-05-01T00:12:58.937Z,100956.00
2019-05-01T00:15:32.625Z,100963.00
2019-05-01T00:18:04.381Z,100943.00
2019-05-01T00:20:37.821Z,100938.00
2019-05-01T00:23:09.383Z,100949.00
2019-05-01T00:25:40.916Z,100947.00
2019-05-01T00:28:13.773Z,100941.00
2019-05-01T00:30:45.507Z,100944.00
2019-05-01T00:33:17.185Z,100946.00
2019-05-01T00:35:48.781Z,100938.00
2019-05-01T00:38:20.436Z,100942.00
2019-05-01T00:40:52.127Z,100930.00
2019-05-01T00:43:23.733Z,100927.00
2019-05-01T00:49:26.183Z,100921.00
2019-05-01T00:51:57.926Z,100920.00
2019-05-01T00:54:32.359Z,100920.00
2019-05-01T00:57:11.421Z,100925.00
2019-05-01T01:00:02.813Z,100914.00
2019-05-01T01:05:24.897Z,100913.00
2019-05-01T01:07:56.853Z,100920.00
2019-05-01T01:10:36.116Z,100913.00
2019-05-01T01:13:08.755Z,100908.00
2019-05-01T01:15:40.863Z,100907.00
2019-05-01T01:18:12.685Z,100908.00
2019-05-01T01:20:46.266Z,100897.00
2019-05-01T01:23:20.976Z,100899.00
2019-05-01T01:25:53.169Z,100908.00
2019-05-01T01:28:25.706Z,100897.00
2019-05-01T01:30:57.357Z,100893.00
2019-05-01T01:33:28.918Z,100899.00
2019-05-01T01:36:00.495Z,100899.00
2019-05-01T01:38:31.979Z,100901.00
2019-05-01T01:41:03.516Z,100893.00
2019-05-01T01:44:03.349Z,100889.00
2019-05-01T01:46:36.377Z,100892.00
2019-05-01T01:49:07.895Z,100885.00
2019-05-01T01:51:39.656Z,100874.00
2019-05-01T01:54:11.321Z,100882.00
2019-05-01T01:56:43.027Z,100869.00
2019-05-01T01:59:15.172Z,100872.00
2019-05-01T02:01:54.653Z,100868.00
2019-05-01T02:04:50.908Z,100860.00
2019-05-01T02:07:22.555Z,100852.00
2019-05-01T02:09:54.313Z,100856.00
2019-05-01T02:12:26.193Z,100858.00
2019-05-01T02:14:58.188Z,100852.00
2019-05-01T02:17:29.822Z,100844.00
2019-05-01T02:20:01.301Z,100839.00
2019-05-01T02:22:33.023Z,100846.00
2019-05-01T02:25:05.895Z,100837.00
2019-05-01T02:27:52.413Z,100836.00
2019-05-01T02:30:24.688Z,100833.00
2019-05-01T02:32:57.156Z,100833.00
2019-05-01T02:35:30.419Z,100833.00
2019-05-01T02:38:05.012Z,100833.00
2019-05-01T02:40:57.724Z,100836.00
2019-05-01T02:43:34.349Z,100831.00
2019-05-01T02:46:09.223Z,100833.00
2019-05-01T02:48:46.052Z,100833.00
2019-05-01T02:51:19.075Z,100831.00
2019-05-01T02:53:51.961Z,100834.00
2019-05-01T02:56:32.472Z,100824.00
2019-05-01T02:59:07.441Z,100831.00
2019-05-01T03:01:47.014Z,100827.00
2019-05-01T03:04:15.541Z,100830.00
2019-05-01T03:06:48.245Z,100831.00
2019-05-01T03:09:22.163Z,100828.00
2019-05-01T03:11:56.099Z,100822.00
2019-05-01T03:14:32.148Z,100824.00
2019-05-01T03:17:08.169Z,100817.00
2019-05-01T03:19:57.793Z,100808.00
2019-05-01T03:22:45.245Z,100815.00
2019-05-01T03:25:19.479Z,100816.00
2019-05-01T03:27:51.545Z,100816.00
2019-05-01T03:30:25.591Z,100809.00
2019-05-01T03:32:57.351Z,100809.00
2019-05-01T03:35:29.885Z,100811.00
2019-05-01T03:38:01.847Z,100799.00
2019-05-01T03:40:33.947Z,100806.00
2019-05-01T03:43:06.212Z,100806.00
2019-05-01T03:45:38.091Z,100799.00
2019-05-01T03:48:10.127Z,100803.00
2019-05-01T03:50:42.118Z,100797.00
2019-05-01T03:53:13.998Z,100807.00
2019-05-01T03:55:46.059Z,100804.00
2019-05-01T03:58:18.722Z,100799.00
2019-05-01T04:01:09.306Z,100805.00
2019-05-01T04:03:50.820Z,100798.00
2019-05-01T04:06:23.374Z,100791.00
2019-05-01T04:08:55.370Z,100796.00
2019-05-01T04:11:26.992Z,100797.00
2019-05-01T04:13:59.332Z,100793.00
2019-05-01T04:16:31.057Z,100795.00
2019-05-01T04:19:03.823Z,100794.00
2019-05-01T04:21:43.449Z,100794.00
2019-05-01T04:24:16.986Z,100796.00
2019-05-01T04:26:48.831Z,100793.00
2019-05-01T04:29:38.309Z,100801.00
2019-05-01T04:32:28.457Z,100796.00
2019-05-01T04:35:24.410Z,100794.00
2019-05-01T04:37:57.992Z,100794.00
2019-05-01T04:40:29.929Z,100802.00
2019-05-01T04:43:01.611Z,100795.00
2019-05-01T04:45:33.363Z,100801.00
2019-05-01T04:48:04.957Z,100788.00
2019-05-01T04:50:36.880Z,100798.00
2019-05-01T04:53:09.005Z,100788.00
2019-05-01T04:55:41.087Z,100783.00
2019-05-01T04:58:13.010Z,100784.00
2019-05-01T05:00:44.624Z,100787.00
2019-05-01T05:03:19.352Z,100792.00
2019-05-01T05:05:51.158Z,100802.00
2019-05-01T05:08:23.393Z,100795.00
2019-05-01T05:10:57.026Z,100799.00
2019-05-01T05:13:46.895Z,100790.00
2019-05-01T05:16:43.031Z,100799.00
2019-05-01T05:19:15.174Z,100796.00
2019-05-01T05:21:47.504Z,100799.00
2019-05-01T05:24:19.620Z,100783.00
2019-05-01T05:26:51.725Z,100792.00
2019-05-01T05:29:25.090Z,100793.00
2019-05-01T05:32:00.040Z,100793.00
2019-05-01T05:34:33.049Z,100793.00
2019-05-01T05:37:17.392Z,100791.00
2019-05-01T05:39:50.628Z,100791.00
2019-05-01T05:42:22.346Z,100790.00
2019-05-01T05:44:54.641Z,100789.00
2019-05-01T05:47:31.916Z,100789.00
2019-05-01T05:50:04.179Z,100785.00
2019-05-01T05:52:46.790Z,100782.00
2019-05-01T05:55:37.176Z,100786.00
2019-05-01T05:58:23.377Z,100773.00
2019-05-01T06:01:10.296Z,100781.00
2019-05-01T06:04:08.672Z,100782.00
2019-05-01T06:07:03.497Z,100780.00
2019-05-01T06:09:48.420Z,100777.00
2019-05-01T06:12:29.176Z,100784.00
2019-05-01T06:15:25.352Z,100784.00
2019-05-01T06:18:05.956Z,100781.00
2019-05-01T06:20:47.729Z,100777.00
2019-05-01T06:23:35.369Z,100781.00
2019-05-01T06:26:31.964Z,100770.00
2019-05-01T06:29:04.831Z,100777.00
2019-05-01T06:31:37.347Z,100764.00
2019-05-01T06:34:09.007Z,100773.00
2019-05-01T06:36:44.148Z,100774.00
2019-05-01T06:39:13.921Z,100760.00
2019-05-01T06:41:45.922Z,100768.00
2019-05-01T06:44:39.165Z,100760.00
2019-05-01T06:47:29.910Z,100769.00
2019-05-01T06:50:19.524Z,100770.00
2019-05-01T06:52:51.742Z,100765.00
2019-05-01T06:55:27.204Z,100772.00
2019-05-01T06:57:57.114Z,100760.00
2019-05-01T07:00:28.856Z,100754.00
2019-05-01T07:03:05.996Z,100770.00
2019-05-01T07:05:36.106Z,100761.00
2019-05-01T07:08:07.742Z,100760.00
2019-05-01T07:10:44.116Z,100761.00
2019-05-01T07:13:13.088Z,100768.00
2019-05-01T07:15:44.687Z,100764.00
2019-05-01T07:18:18.785Z,100766.00
2019-05-01T07:20:55.405Z,100754.00
2019-05-01T07:23:27.414Z,100771.00
2019-05-01T07:25:59.555Z,100765.00
2019-05-01T07:28:34.402Z,100769.00
2019-05-01T07:31:10.455Z,100761.00
2019-05-01T07:33:42.516Z,100762.00
2019-05-01T07:36:16.438Z,100761.00
2019-05-01T07:38:48.628Z,100758.00
2019-05-01T07:41:23.047Z,100758.00
2019-05-01T07:44:04.593Z,100762.00
2019-05-01T07:46:54.164Z,100748.00
2019-05-01T07:49:47.875Z,100758.00
2019-05-01T07:52:18.755Z,100760.00
2019-05-01T07:54:50.748Z,100774.00
2019-05-01T07:57:23.229Z,100775.00
2019-05-01T07:59:58.221Z,100765.00
2019-05-01T08:02:30.967Z,100767.00
2019-05-01T08:05:05.029Z,100758.00
2019-05-01T08:07:38.087Z,100773.00
2019-05-01T08:10:10.040Z,100771.00
2019-05-01T08:12:41.517Z,100773.00
2019-05-01T08:15:13.069Z,100762.00
2019-05-01T08:17:48.780Z,100770.00
2019-05-01T08:20:29.185Z,100773.00
2019-05-01T08:23:00.683Z,100765.00
2019-05-01T08:25:33.279Z,100763.00
2019-05-01T08:28:18.071Z,100771.00
2019-05-01T08:31:17.647Z,100774.00
2019-05-01T08:34:03.143Z,100797.00
2019-05-01T08:36:35.691Z,100771.00
2019-05-01T08:39:09.177Z,100772.00
2019-05-01T08:41:41.852Z,100780.00
2019-05-01T08:44:13.424Z,100773.00
2019-05-01T08:46:57.340Z,100778.00
2019-05-01T08:49:35.685Z,100775.00
2019-05-01T08:52:12.652Z,100773.00
2019-05-01T08:54:41.043Z,100776.00
2019-05-01T08:57:12.614Z,100765.00
2019-05-01T08:59:44.142Z,100773.00
2019-05-01T09:02:15.757Z,100775.00
2019-05-01T09:04:47.413Z,100773.00
2019-05-01T09:07:20.690Z,100772.00
2019-05-01T09:09:52.297Z,100773.00
2019-05-01T09:12:26.213Z,100764.00
2019-05-01T09:14:57.839Z,100765.00
2019-05-01T09:17:29.330Z,100768.00
2019-05-01T09:20:01.162Z,100762.00
2019-05-01T09:22:32.775Z,100763.00
2019-05-01T09:25:05.275Z,100763.00
2019-05-01T09:27:54.495Z,100770.00
2019-05-01T09:30:35.933Z,100777.00
2019-05-01T09:33:07.587Z,100764.00
2019-05-01T09:35:40.175Z,100792.00
2019-05-01T09:38:12.523Z,100776.00
2019-05-01T09:40:44.179Z,100782.00
2019-05-01T09:43:16.022Z,100767.00
2019-05-01T09:45:47.719Z,100764.00
2019-05-01T09:48:19.585Z,100770.00
2019-05-01T09:51:10.389Z,100774.00
2019-05-01T09:54:19.470Z,100765.00
2019-05-01T09:56:51.056Z,100757.00
2019-05-01T09:59:22.594Z,100762.00
2019-05-01T10:01:54.261Z,100767.00
2019-05-01T10:04:30.295Z,100771.00
2019-05-01T10:07:02.014Z,100755.00
2019-05-01T10:09:32.323Z,100771.00
2019-05-01T10:12:04.316Z,100758.00
2019-05-01T10:14:37.384Z,100756.00
2019-05-01T10:17:13.481Z,100742.00
2019-05-01T10:19:50.262Z,100756.00
2019-05-01T10:22:22.342Z,100752.00
2019-05-01T10:24:55.127Z,100758.00
2019-05-01T10:27:30.794Z,100758.00
2019-05-01T10:30:21.514Z,100755.00
2019-05-01T10:33:07.409Z,100752.00
2019-05-01T10:36:02.034Z,100750.00
2019-05-01T10:38:33.726Z,100742.00
2019-05-01T10:41:09.230Z,100755.00
2019-05-01T10:43:39.731Z,100740.00
2019-05-01T10:46:12.201Z,100745.00
2019-05-01T10:48:45.001Z,100732.00
2019-05-01T10:51:16.778Z,100731.00
2019-05-01T10:53:49.206Z,100736.00
2019-05-01T10:56:26.843Z,100731.00
2019-05-01T10:59:02.473Z,100732.00
2019-05-01T11:02:01.821Z,100728.00
2019-05-01T11:04:59.955Z,100730.00
2019-05-01T11:07:36.186Z,100728.00
2019-05-01T11:10:10.630Z,100725.00
2019-05-01T11:12:43.064Z,100720.00
2019-05-01T11:15:17.123Z,100731.00
2019-05-01T11:17:48.807Z,100727.00
2019-05-01T11:20:21.803Z,100712.00
2019-05-01T11:22:54.344Z,100720.00
2019-05-01T11:26:24.854Z,100708.00
2019-05-01T11:29:31.004Z,100716.00
2019-05-01T11:32:37.888Z,100708.00
2019-05-01T11:35:52.873Z,100703.00
2019-05-01T11:38:45.338Z,100709.00
2019-05-01T11:41:36.057Z,100709.00
2019-05-01T11:44:04.944Z,100700.00
2019-05-01T11:46:36.840Z,100700.00
2019-05-01T11:49:08.491Z,100714.00
2019-05-01T11:51:40.311Z,100705.00
2019-05-01T11:54:13.241Z,100703.00
2019-05-01T11:56:45.207Z,100699.00
2019-05-01T11:59:17.146Z,100697.00
2019-05-01T12:05:10.632Z,100693.00
2019-05-01T12:08:43.257Z,100703.00
2019-05-01T12:11:23.033Z,100691.00
2019-05-01T12:14:14.605Z,100690.00
2019-05-01T12:17:19.817Z,100685.00
2019-05-01T12:19:57.366Z,100687.00
2019-05-01T12:22:30.764Z,100682.00
2019-05-01T12:25:02.476Z,100685.00
2019-05-01T12:27:34.045Z,100678.00
2019-05-01T12:30:06.811Z,100686.00
2019-05-01T12:32:38.475Z,100681.00
2019-05-01T12:35:10.672Z,100687.00
2019-05-01T12:37:43.166Z,100675.00
2019-05-01T12:40:19.298Z,100676.00
2019-05-01T12:42:51.209Z,100680.00
2019-05-01T12:45:23.239Z,100675.00
2019-05-01T12:47:57.753Z,100677.00
2019-05-01T12:50:29.410Z,100670.00
2019-05-01T12:53:18.637Z,100661.00
2019-05-01T12:56:12.028Z,100667.00
2019-05-01T12:58:44.373Z,100665.00
2019-05-01T13:01:16.255Z,100662.00
2019-05-01T13:03:47.886Z,100665.00
2019-05-01T13:06:23.504Z,100666.00
2019-05-01T13:08:55.335Z,100665.00
2019-05-01T13:11:27.105Z,100655.00
2019-05-01T13:13:58.699Z,100661.00
2019-05-01T13:16:30.468Z,100657.00
2019-05-01T13:19:06.713Z,100655.00
2019-05-01T13:21:38.352Z,100655.00
2019-05-01T13:24:11.303Z,100647.00
2019-05-01T13:26:51.401Z,100644.00
2019-05-01T13:29:31.105Z,100645.00
2019-05-01T13:32:38.099Z,100635.00
2019-05-01T13:35:10.486Z,100636.00
2019-05-01T13:37:42.369Z,100634.00
2019-05-01T13:40:15.235Z,100650.00
2019-05-01T13:42:49.883Z,100624.00
2019-05-01T13:45:21.567Z,100626.00
2019-05-01T13:47:54.652Z,100611.00
2019-05-01T13:50:27.737Z,100617.00
2019-05-01T13:52:59.447Z,100617.00
2019-05-01T13:55:31.046Z,100596.00
2019-05-01T13:58:02.897Z,100600.00
2019-05-01T14:00:35.337Z,100608.00
2019-05-01T14:03:07.137Z,100596.00
2019-05-01T14:05:50.692Z,100582.00
2019-05-01T14:08:23.477Z,100594.00
2019-05-01T14:10:58.127Z,100580.00
2019-05-01T14:16:21.889Z,100594.00
2019-05-01T14:18:53.648Z,100580.00
2019-05-01T14:21:53.333Z,100575.00
2019-05-01T14:24:35.762Z,100593.00
2019-05-01T14:27:10.631Z,100590.00
2019-05-01T14:29:42.559Z,100580.00
2019-05-01T14:32:14.776Z,100587.00
2019-05-01T14:34:46.672Z,100589.00
2019-05-01T14:37:29.684Z,100582.00
2019-05-01T14:40:05.164Z,100587.00
2019-05-01T14:42:41.694Z,100577.00
2019-05-01T14:45:18.915Z,100576.00
2019-05-01T14:47:56.204Z,100583.00
2019-05-01T14:50:29.095Z,100578.00
2019-05-01T14:53:01.039Z,100574.00
2019-05-01T14:55:32.913Z,100569.00
2019-05-01T14:58:04.522Z,100570.00
2019-05-01T15:00:36.331Z,100564.00
2019-05-01T15:03:07.897Z,100557.00
2019-05-01T15:05:39.516Z,100558.00
2019-05-01T15:08:10.971Z,100563.00
2019-05-01T15:10:42.549Z,100567.00
2019-05-01T15:13:33.092Z,100561.00
2019-05-01T15:16:10.656Z,100554.00
2019-05-01T15:18:51.449Z,100558.00
2019-05-01T15:21:23.749Z,100557.00
2019-05-01T15:23:55.379Z,100554.00
2019-05-01T15:26:26.919Z,100546.00
2019-05-01T15:28:58.525Z,100555.00
2019-05-01T15:31:30.184Z,100546.00
2019-05-01T15:34:01.757Z,100545.00
2019-05-01T15:36:33.422Z,100552.00
2019-05-01T15:39:09.265Z,100546.00
2019-05-01T15:42:12.142Z,100555.00
2019-05-01T15:44:44.131Z,100543.00
2019-05-01T15:47:15.816Z,100549.00
2019-05-01T15:49:47.479Z,100538.00
2019-05-01T15:52:19.092Z,100537.00
2019-05-01T15:54:50.771Z,100554.00
2019-05-01T15:57:22.395Z,100544.00
2019-05-01T15:59:53.941Z,100540.00
2019-05-01T16:02:27.538Z,100544.00
2019-05-01T16:04:59.189Z,100541.00
2019-05-01T16:07:30.753Z,100542.00
2019-05-01T16:10:03.549Z,100540.00
2019-05-01T16:12:43.158Z,100536.00
2019-05-01T16:15:25.364Z,100533.00
2019-05-01T16:17:56.872Z,100538.00
2019-05-01T16:20:28.569Z,100530.00
2019-05-01T16:23:00.143Z,100527.00
2019-05-01T16:25:31.696Z,100525.00
2019-05-01T16:28:03.212Z,100518.00
2019-05-01T16:30:35.739Z,100512.00
2019-05-01T16:33:07.445Z,100522.00
2019-05-01T16:35:38.998Z,100519.00
2019-05-01T16:38:23.266Z,100518.00
2019-05-01T16:41:04.042Z,100516.00
2019-05-01T16:43:35.528Z,100509.00
2019-05-01T16:46:07.491Z,100518.00
2019-05-01T16:48:39.126Z,100520.00
2019-05-01T16:51:10.731Z,100509.00
2019-05-01T16:53:42.493Z,100505.00
2019-05-01T16:56:14.063Z,100515.00
2019-05-01T16:58:45.597Z,100505.00
2019-05-01T17:01:36.273Z,100500.00
2019-05-01T17:04:15.935Z,100512.00
2019-05-01T17:07:06.428Z,100508.00
2019-05-01T17:10:06.118Z,100497.00
2019-05-01T17:12:45.826Z,100506.00
2019-05-01T17:15:25.600Z,100502.00
2019-05-01T17:17:58.132Z,100500.00
2019-05-01T17:20:30.280Z,100503.00
2019-05-01T17:23:01.912Z,100495.00
2019-05-01T17:25:33.427Z,100482.00
2019-05-01T17:28:08.236Z,100489.00
2019-05-01T17:30:43.111Z,100484.00
2019-05-01T17:33:19.543Z,100477.00
2019-05-01T17:35:48.005Z,100470.00
2019-05-01T17:38:19.562Z,100482.00
2019-05-01T17:40:52.168Z,100473.00
2019-05-01T17:43:24.505Z,100471.00
2019-05-01T17:45:56.150Z,100471.00
2019-05-01T17:48:28.966Z,100471.00
2019-05-01T17:51:01.960Z,100475.00
2019-05-01T17:53:40.439Z,100477.00
2019-05-01T17:56:17.406Z,100463.00
2019-05-01T17:58:48.670Z,100467.00
2019-05-01T18:01:32.929Z,100462.00
2019-05-01T18:04:33.542Z,100467.00
2019-05-01T18:07:05.168Z,100476.00
2019-05-01T18:09:36.916Z,100474.00
2019-05-01T18:12:08.493Z,100470.00
2019-05-01T18:14:40.157Z,100475.00
2019-05-01T18:17:12.268Z,100464.00
2019-05-01T18:19:44.070Z,100466.00
2019-05-01T18:22:37.279Z,100469.00
2019-05-01T18:25:33.075Z,100471.00
2019-05-01T18:28:24.895Z,100454.00
2019-05-01T18:30:56.887Z,100469.00
2019-05-01T18:33:29.906Z,100465.00
2019-05-01T18:36:03.232Z,100457.00
2019-05-01T18:38:54.012Z,100467.00
2019-05-01T18:41:39.862Z,100457.00
2019-05-01T18:44:12.713Z,100456.00
2019-05-01T18:46:46.038Z,100451.00
2019-05-01T18:49:24.398Z,100452.00
2019-05-01T18:52:01.382Z,100456.00
2019-05-01T18:54:35.095Z,100455.00
2019-05-01T18:57:08.629Z,100455.00
2019-05-01T18:59:42.580Z,100450.00
2019-05-01T19:02:15.360Z,100454.00
2019-05-01T19:04:47.847Z,100452.00
2019-05-01T19:07:19.799Z,100442.00
2019-05-01T19:09:51.752Z,100446.00
2019-05-01T19:12:23.539Z,100448.00
2019-05-01T19:14:55.726Z,100447.00
2019-05-01T19:17:27.680Z,100442.00
2019-05-01T19:19:59.475Z,100436.00
2019-05-01T19:22:31.198Z,100437.00
2019-05-01T19:25:04.739Z,100438.00
2019-05-01T19:27:37.977Z,100430.00
2019-05-01T19:30:14.942Z,100431.00
2019-05-01T19:32:44.649Z,100429.00
2019-05-01T19:35:23.685Z,100434.00
2019-05-01T19:37:57.526Z,100432.00
2019-05-01T19:40:30.677Z,100419.00
2019-05-01T19:43:00.275Z,100414.00
2019-05-01T19:45:32.166Z,100411.00
2019-05-01T19:48:03.843Z,100400.00
2019-05-01T19:50:39.969Z,100403.00
2019-05-01T19:53:10.107Z,100413.00
2019-05-01T19:55:46.562Z,100396.00
2019-05-01T19:58:19.456Z,100400.00
2019-05-01T20:01:04.412Z,100400.00
2019-05-01T20:03:38.572Z,100399.00
2019-05-01T20:06:11.034Z,100397.00
2019-05-01T20:08:42.688Z,100406.00
2019-05-01T20:11:14.421Z,100396.00
2019-05-01T20:13:46.104Z,100392.00
2019-05-01T20:16:19.102Z,100392.00
2019-05-01T20:18:53.139Z,100384.00
2019-05-01T20:21:25.119Z,100386.00
2019-05-01T20:23:56.838Z,100379.00
2019-05-01T20:26:32.252Z,100376.00
2019-05-01T20:29:03.588Z,100376.00
2019-05-01T20:31:36.443Z,100375.00
2019-05-01T20:34:17.418Z,100374.00
2019-05-01T20:36:47.243Z,100372.00
2019-05-01T20:39:23.857Z,100364.00
2019-05-01T20:41:58.703Z,100370.00
2019-05-01T20:44:30.647Z,100368.00
2019-05-01T20:47:03.983Z,100360.00
2019-05-01T20:49:41.305Z,100366.00
2019-05-01T20:52:12.035Z,100356.00
2019-05-01T20:55:04.459Z,100348.00
2019-05-01T20:57:38.806Z,100348.00
2019-05-01T21:00:16.720Z,100349.00
2019-05-01T21:02:52.741Z,100336.00
2019-05-01T21:05:33.994Z,100348.00
2019-05-01T21:08:10.265Z,100337.00
2019-05-01T21:10:51.099Z,100344.00
2019-05-01T21:13:24.960Z,100332.00
2019-05-01T21:16:01.637Z,100336.00
2019-05-01T21:18:32.574Z,100337.00
2019-05-01T21:21:04.319Z,100336.00
2019-05-01T21:23:36.333Z,100333.00
2019-05-01T21:26:07.980Z,100334.00
2019-05-01T21:28:42.103Z,100323.00
2019-05-01T21:31:13.827Z,100324.00
2019-05-01T21:33:50.417Z,100320.00
2019-05-01T21:36:31.833Z,100313.00
2019-05-01T21:39:05.442Z,100331.00
2019-05-01T21:41:37.188Z,100333.00
2019-05-01T21:44:08.741Z,100317.00
2019-05-01T21:46:40.333Z,100309.00
2019-05-01T21:49:13.016Z,100317.00
2019-05-01T21:51:46.186Z,100321.00
2019-05-01T21:54:20.648Z,100305.00
2019-05-01T21:56:51.460Z,100308.00
2019-05-01T21:59:25.349Z,100302.00
2019-05-01T22:01:56.343Z,100301.00
2019-05-01T22:04:31.736Z,100304.00
2019-05-01T22:07:01.113Z,100294.00
2019-05-01T22:09:33.220Z,100292.00
2019-05-01T22:12:08.320Z,100286.00
2019-05-01T22:14:44.006Z,100287.00
2019-05-01T22:17:40.422Z,100280.00
2019-05-01T22:20:14.017Z,100281.00
2019-05-01T22:22:55.618Z,100278.00
2019-05-01T22:25:31.655Z,100290.00
2019-05-01T22:28:14.044Z,100276.00
2019-05-01T22:31:03.265Z,100278.00
2019-05-01T22:33:35.690Z,100266.00
2019-05-01T22:36:08.128Z,100266.00
2019-05-01T22:38:39.730Z,100275.00
2019-05-01T22:41:13.434Z,100264.00
2019-05-01T22:43:44.929Z,100257.00
2019-05-01T22:46:24.643Z,100260.00
2019-05-01T22:48:59.032Z,100243.00
2019-05-01T22:51:30.522Z,100236.00
2019-05-01T22:54:02.168Z,100234.00
2019-05-01T22:56:33.793Z,100236.00
2019-05-01T22:59:05.649Z,100230.00
2019-05-01T23:01:37.406Z,100230.00
2019-05-01T23:04:12.021Z,100230.00
2019-05-01T23:06:43.138Z,100221.00
2019-05-01T23:09:16.927Z,100221.00
2019-05-01T23:11:48.745Z,100220.00
2019-05-01T23:14:21.359Z,100212.00
2019-05-01T23:17:05.224Z,100205.00
2019-05-01T23:19:36.942Z,100208.00
2019-05-01T23:22:09.143Z,100195.00
2019-05-01T23:24:41.685Z,100201.00
2019-05-01T23:27:13.264Z,100196.00
2019-05-01T23:29:44.887Z,100203.00
2019-05-01T23:32:16.521Z,100183.00
2019-05-01T23:34:48.022Z,100186.00
2019-05-01T23:37:19.593Z,100172.00
2019-05-01T23:39:51.113Z,100176.00
2019-05-01T23:42:22.709Z,100177.00
2019-05-01T23:44:57.966Z,100176.00
2019-05-01T23:47:29.558Z,100173.00
2019-05-01T23:50:02.220Z,100159.00
2019-05-01T23:52:38.290Z,100154.00
2019-05-01T23:55:07.360Z,100156.00
2019-05-01T23:57:39.852Z,100151.00
